CanjetBLOCKVirtuelBLOCKQcBLOCKBLOCKBLOCKBLOCKBLOCKBLOCKBLOCKBLOCKBLOCKBLOCKBLOCKvolsBLOCKavecBLOCKFS-kACARS2020-05-28BLOCK05colon38pm

volsBLOCKBLOCKBLOCKBLOCKBLOCKpilotesBLOCKBLOCKBLOCKBLOCKBLOCKBLOCKBLOCKBLOCKtypeBLOCKBLOCKdepBLOCKBLOCKarrBLOCKBLOCKBLOCKBLOCKBLOCKaltBLOCKBLOCKBLOCKBLOCKBLOCKgsBLOCKBLOCKBLOCKBLOCKstatut

CJA405BerthinBLOCKHB738KORF-CYUL35171ft472kts05colon59pm
CJA1077LucBLOCKBB738KBOS-KLAS33901ft468kts08colon49pm
CJA977RochBLOCKJB738MDPC-CYUL35079ft433kts07colon21pm
CJA8241ClaudeBLOCKLB77LCYWG-RCTP0ft0ktsarrived
CJA9999StephaneBLOCKGB744CYFB-CYUL33993ft465kts07colon08pm








BLOCKAppuyerBLOCKsurBLOCKF5BLOCKpourBLOCKactualiserBLOCKBLOCKBLOCKMiseBLOCKaBLOCKjourcolonBLOCK17colon38colon36pmCanjetBLOCKvirtuelBLOCKQC

Covid19

Publié par Michel Ayotte le 2020-05-11

Canjetvirtuel-Québec est fière des Anges Gardiens de la Santé ainsi que ceux des Services sociaux

 

Bravo à tous et merci 


Ça va bien aller!           

 

Vous trouverez votre place comme pilote chez nous!


Vols du mois Avril

Publié par Michel Ayotte le 2020-04-01

Canjetvirtuel-Québec est fière de ses 15 pilotes.

Ce mois-ci,(Avril) nous allons dépassé le record des vols depuis la fondation de la V.A. 

274 vols inscrits avec des profits de 8Millions

Bravo à tous et merci de faire partie de cette belle famille.

Ça va bien aller !           

 

Vous trouverez votre place comme pilote chez nous!


Microsoft flight sim 2020

Publié par Yvan Roy le 2019-06-25

 

Microsoft flight simulator 2020 encore plus fort sera disponible pour votre PC au début 2020 .

 

https://www.flightsimulator.com/
 

                                                   

 




                                                   

 




Bienvenue chez Canjetvirtuel-Q

Publié par Michel Ayotte le 2013-06-14

 

Canjetvirtuel-Québec est une compagnie aérienne virtuelle qui a été fondée par 2 passionnés de la simulation de vol.

Elle est opérée avec les Boeing 737. Exceptionnelement et pour votre plaisir les Boeing 747,757,767 et 777 sont autorisés pour des vols de plus de 1,5 heure.

Ces appareils pouvant faire des vols cargos ou des vols passagers,que ce soit au Canada, Europe, États-Unis, Mexique et Caraïbes.

Vous trouverez votre place comme pilote chez nous!



Avis

Aux fins de la simulation de vol seulement. CanjetVirtuel Québec n'est en aucun cas affilié avec n'importe quelle compagnie aérienne du monde réel. CanjetVirtuel Québec est un site à but non lucratif gérée par des amateurs de simulation de vol. Toutes les images sont la propriété exclusive de leurs propriétaires respectifs.
| propulsé par phpVMS, © 2013-2020.

Notice

For flight simulation purposes only. CanjetVirtuel Quebec is in no way affiliated with any real world airline. CanjetVirtuel Quebec is a non-profit site run by flight simulation enthusiasts. All images are the sole property of their respective owners.
| powered by phpVMS, © 2013-2020.

Affiliations

Vatsim

Les statistiques du site

Nombre de pilotes: 15
Total des vols effectués: 6152
Trajets disponibles: 568
Passagers transportés: 1692673
Total des heures de vol: 20149
Distance totale (NM): 7908969
Pilotes en ligne: 6

Nouvelles

Covid19
05/11/2020
Vols du mois Avril
04/01/2020
Microsoft flight sim 2020
06/25/2019
Bienvenue chez Canjetvirtuel-Q
06/14/2013

METAR

CYHZ 282100Z 22016G23KT 15SM FEW040 FEW080 BKN260 BKN290 26/17 A3009 RMK CU1AC1CI4CC1 AC TR SLP190 DENSITY ALT 1700FT

CYQB 282100Z 23018G24KT 30SM FEW068 SCT150 BKN220 30/15 A2992 RMK CU2AC1CI3 SLP133 DENSITY ALT 2000FT

CYUL 282100Z 23007KT 30SM FEW065 OVC180 29/17 A2993 RMK SC1AC7 SLP135 DENSITY ALT 1800FT

CYYZ 282100Z 34003KT 3SM -RA BR OVC004 19/18 A2987 RMK SF8 SLP116 DENSITY ALT 1300FT